createdAt,value
2017-09-13T00:02:07.462Z,15.65
2017-09-13T00:05:02.460Z,15.63
2017-09-13T00:07:57.249Z,15.62
2017-09-13T00:10:52.221Z,15.59
2017-09-13T00:13:47.134Z,15.57
2017-09-13T00:16:42.050Z,15.55
2017-09-13T00:19:36.860Z,15.53
2017-09-13T00:22:31.799Z,15.52
2017-09-13T00:25:26.792Z,15.50
2017-09-13T00:28:21.719Z,15.47
2017-09-13T00:31:16.680Z,15.45
2017-09-13T00:34:11.498Z,15.42
2017-09-13T00:37:06.504Z,15.39
2017-09-13T00:40:01.446Z,15.37
2017-09-13T00:42:56.292Z,15.36
2017-09-13T00:45:51.094Z,15.35
2017-09-13T00:48:45.996Z,15.32
2017-09-13T00:51:41.000Z,15.29
2017-09-13T00:54:35.897Z,15.27
2017-09-13T00:57:30.672Z,15.25
2017-09-13T01:00:25.516Z,15.24
2017-09-13T01:03:20.426Z,15.23
2017-09-13T01:06:15.315Z,15.21
2017-09-13T01:09:10.204Z,15.21
2017-09-13T01:12:04.947Z,15.20
2017-09-13T01:14:59.795Z,15.19
2017-09-13T01:17:54.592Z,15.19
2017-09-13T01:23:44.474Z,15.17
2017-09-13T01:26:39.327Z,15.15
2017-09-13T01:29:34.152Z,15.13
2017-09-13T01:32:28.912Z,15.11
2017-09-13T01:35:23.751Z,15.09
2017-09-13T01:38:18.621Z,15.07
2017-09-13T01:41:13.450Z,15.04
2017-09-13T01:44:08.294Z,15.02
2017-09-13T01:49:57.987Z,14.95
2017-09-13T01:52:53.311Z,14.92
2017-09-13T01:55:48.171Z,14.89
2017-09-13T01:58:43.013Z,14.86
2017-09-13T02:04:32.977Z,14.82
2017-09-13T02:07:27.784Z,14.81
2017-09-13T02:10:22.568Z,14.79
2017-09-13T02:13:17.263Z,14.77
2017-09-13T02:16:12.171Z,14.76
2017-09-13T02:19:06.848Z,14.75
2017-09-13T02:22:01.666Z,14.73
2017-09-13T02:24:56.427Z,14.72
2017-09-13T02:27:51.178Z,14.72
2017-09-13T02:30:45.917Z,14.70
2017-09-13T02:33:40.611Z,14.68
2017-09-13T02:36:35.470Z,14.67
2017-09-13T02:39:30.225Z,14.65
2017-09-13T02:42:25.036Z,14.63
2017-09-13T02:45:19.747Z,14.62
2017-09-13T02:48:14.496Z,14.60
2017-09-13T02:56:59.029Z,14.55
2017-09-13T02:59:53.745Z,14.53
2017-09-13T03:02:48.420Z,14.51
2017-09-13T03:05:43.181Z,14.49
2017-09-13T03:08:37.955Z,14.47
2017-09-13T03:11:32.766Z,14.47
2017-09-13T03:14:27.620Z,14.45
2017-09-13T03:17:22.463Z,14.44
2017-09-13T03:20:17.326Z,14.43
2017-09-13T03:23:12.057Z,14.42
2017-09-13T03:26:06.801Z,14.41
2017-09-13T03:29:01.555Z,14.40
2017-09-13T03:31:56.666Z,14.39
2017-09-13T03:37:46.228Z,14.35
2017-09-13T03:40:40.990Z,14.35
2017-09-13T03:43:35.819Z,14.34
2017-09-13T03:46:30.573Z,14.34
2017-09-13T03:49:25.290Z,14.34
2017-09-13T03:52:20.062Z,14.33
2017-09-13T03:55:14.766Z,14.32
2017-09-13T03:58:09.507Z,14.30
2017-09-13T04:03:58.908Z,14.29
2017-09-13T04:06:53.659Z,14.28
2017-09-13T04:09:48.361Z,14.28
2017-09-13T04:12:43.160Z,14.27
2017-09-13T04:15:37.818Z,14.28
2017-09-13T04:21:27.330Z,14.26
2017-09-13T04:24:22.269Z,14.24
2017-09-13T04:33:12.720Z,14.26
2017-09-13T04:36:07.534Z,14.26
2017-09-13T04:39:02.125Z,14.26
2017-09-13T04:41:56.891Z,14.26
2017-09-13T04:44:51.622Z,14.25
2017-09-13T04:47:46.305Z,14.25
2017-09-13T04:50:41.036Z,14.25
2017-09-13T04:58:12.093Z,14.27
2017-09-13T05:00:56.616Z,14.38
2017-09-13T05:03:50.871Z,14.44
2017-09-13T05:06:45.415Z,14.45
2017-09-13T05:12:34.798Z,14.45
2017-09-13T05:15:29.435Z,14.44
2017-09-13T05:21:18.874Z,14.43
2017-09-13T05:27:08.209Z,14.42
2017-09-13T05:30:02.815Z,14.41
2017-09-13T05:32:57.516Z,14.41
2017-09-13T05:35:52.260Z,14.43
2017-09-13T05:38:46.981Z,14.45
2017-09-13T05:41:41.680Z,14.46
2017-09-13T05:44:36.465Z,14.47
2017-09-13T05:47:31.093Z,14.50
2017-09-13T05:50:25.903Z,14.53
2017-09-13T05:53:21.125Z,14.56
2017-09-13T05:56:15.867Z,14.59
2017-09-13T05:59:10.438Z,14.62
2017-09-13T06:02:05.127Z,14.64
2017-09-13T06:07:54.665Z,14.70
2017-09-13T06:13:44.123Z,14.74
2017-09-13T06:16:38.784Z,14.75
2017-09-13T06:19:33.541Z,14.76
2017-09-13T06:22:28.253Z,14.77
2017-09-13T06:25:22.936Z,14.79
2017-09-13T06:28:17.600Z,14.80
2017-09-13T06:31:12.348Z,14.82
2017-09-13T06:44:05.922Z,15.49
2017-09-13T06:49:04.795Z,15.71
2017-09-13T06:51:48.665Z,15.77
2017-09-13T07:01:51.863Z,15.88
2017-09-13T07:04:35.268Z,15.98
2017-09-13T07:21:25.302Z,16.36
2017-09-13T07:24:08.625Z,16.40
2017-09-13T10:19:44.208Z,18.42
2017-09-13T10:23:47.338Z,18.90
2017-09-13T10:26:32.641Z,19.21
2017-09-13T10:29:27.198Z,19.33
2017-09-13T10:32:22.163Z,19.23
2017-09-13T10:35:17.162Z,19.10
2017-09-13T10:38:12.139Z,19.00
2017-09-13T10:41:07.329Z,18.92
2017-09-13T10:44:02.511Z,18.81
2017-09-13T10:49:59.212Z,18.70
2017-09-13T10:52:54.333Z,18.61
2017-09-13T10:55:49.426Z,18.53
2017-09-13T10:58:44.565Z,18.45
2017-09-13T11:01:39.744Z,18.42
2017-09-13T11:04:34.939Z,18.37
2017-09-13T11:07:52.680Z,18.32
2017-09-13T11:10:40.986Z,18.32
2017-09-13T11:13:36.097Z,18.33
2017-09-13T11:16:31.166Z,18.30
2017-09-13T11:19:26.453Z,18.27
2017-09-13T11:22:21.561Z,18.25
2017-09-13T11:25:16.750Z,18.24
2017-09-13T11:28:11.892Z,18.22
2017-09-13T11:31:07.016Z,18.24
2017-09-13T11:34:02.197Z,18.25
2017-09-13T11:36:57.312Z,18.26
2017-09-13T11:39:52.562Z,18.28
2017-09-13T11:42:47.647Z,18.31
2017-09-13T11:45:42.896Z,18.33
2017-09-13T11:48:38.042Z,18.36
2017-09-13T11:51:33.268Z,18.38
2017-09-13T11:54:28.613Z,18.42
2017-09-13T11:57:23.738Z,18.45
2017-09-13T12:00:18.830Z,18.48
2017-09-13T12:03:13.985Z,18.49
2017-09-13T12:06:09.223Z,18.52
2017-09-13T12:09:04.423Z,18.55
2017-09-13T12:11:59.676Z,18.56
2017-09-13T12:14:54.965Z,18.56
2017-09-13T12:17:50.130Z,18.58
2017-09-13T12:20:45.293Z,18.58
2017-09-13T12:23:40.508Z,18.60
2017-09-13T12:26:35.712Z,18.61
2017-09-13T12:29:30.989Z,18.62
2017-09-13T12:32:26.183Z,18.63
2017-09-13T12:35:21.323Z,18.65
2017-09-13T12:38:16.540Z,18.67
2017-09-13T12:41:11.680Z,18.69
2017-09-13T12:44:06.846Z,18.70
2017-09-13T12:47:02.100Z,18.70
2017-09-13T12:49:57.207Z,18.69
2017-09-13T12:52:52.426Z,18.71
2017-09-13T12:55:47.583Z,18.74
2017-09-13T12:58:42.775Z,18.78
2017-09-13T13:01:38.151Z,18.82
2017-09-13T13:04:33.218Z,18.85
2017-09-13T13:07:28.505Z,18.88
2017-09-13T13:10:23.722Z,18.90
2017-09-13T13:13:18.898Z,18.91
2017-09-13T13:16:14.095Z,18.92
2017-09-13T13:19:09.183Z,18.93
2017-09-13T13:22:04.516Z,18.96
2017-09-13T13:24:59.754Z,18.97
2017-09-13T13:27:54.937Z,18.97
2017-09-13T13:30:50.175Z,18.97
2017-09-13T13:33:45.321Z,18.97
2017-09-13T13:36:40.504Z,18.97
2017-09-13T13:39:35.704Z,18.97
2017-09-13T13:45:26.141Z,18.97
2017-09-13T13:56:10.693Z,19.31
2017-09-13T13:59:05.180Z,19.35
2017-09-13T14:02:00.049Z,19.32
2017-09-13T14:04:55.168Z,19.28
2017-09-13T14:07:50.100Z,19.24
2017-09-13T14:10:45.266Z,19.20
2017-09-13T14:13:40.353Z,19.18
2017-09-13T14:16:35.536Z,19.16
2017-09-13T14:19:30.751Z,19.16
2017-09-13T14:22:25.900Z,19.15
2017-09-13T14:25:21.044Z,19.14
2017-09-13T14:28:16.234Z,19.13
2017-09-13T14:31:11.418Z,19.12
2017-09-13T14:34:06.547Z,19.11
2017-09-13T14:37:01.852Z,19.11
2017-09-13T14:39:57.122Z,19.11
2017-09-13T14:42:52.388Z,19.10
2017-09-13T14:45:47.667Z,19.11
2017-09-13T14:48:42.924Z,19.10
2017-09-13T14:51:38.231Z,19.08
2017-09-13T15:10:56.386Z,19.43
2017-09-13T15:13:40.249Z,19.49
2017-09-13T15:17:19.558Z,19.38
2017-09-13T15:25:22.371Z,19.25
2017-09-13T15:31:00.607Z,19.19
2017-09-13T15:33:55.308Z,19.04
2017-09-13T15:36:50.258Z,18.88
2017-09-13T15:39:45.297Z,18.74
2017-09-13T15:42:40.312Z,18.61
2017-09-13T15:45:35.505Z,18.50
2017-09-13T15:48:30.816Z,18.41
2017-09-13T15:51:25.987Z,18.34
2017-09-13T15:54:21.068Z,18.28
2017-09-13T15:57:16.049Z,18.23
2017-09-13T16:00:11.245Z,18.19
2017-09-13T16:03:06.349Z,18.16
2017-09-13T16:08:56.959Z,18.11
2017-09-13T16:11:52.112Z,18.10
2017-09-13T16:15:09.835Z,18.09
2017-09-13T16:18:32.070Z,18.11
2017-09-13T16:23:00.949Z,18.17
2017-09-13T16:25:46.020Z,18.27
2017-09-13T16:28:40.692Z,18.29
2017-09-13T16:31:35.661Z,18.27
2017-09-13T16:34:30.730Z,18.25
2017-09-13T16:37:25.881Z,18.22
2017-09-13T16:40:21.085Z,18.17
2017-09-13T16:43:16.277Z,18.14
2017-09-13T16:46:11.322Z,18.11
2017-09-13T16:49:06.444Z,18.08
2017-09-13T16:52:01.863Z,18.05
2017-09-13T16:54:56.962Z,18.02
2017-09-13T16:57:52.142Z,17.99
2017-09-13T17:00:47.340Z,17.96
2017-09-13T17:03:42.583Z,17.94
2017-09-13T17:06:37.591Z,17.93
2017-09-13T17:09:32.797Z,17.91
2017-09-13T17:12:28.363Z,17.90
2017-09-13T17:15:23.414Z,17.89
2017-09-13T17:18:18.507Z,17.87
2017-09-13T17:21:13.628Z,17.86
2017-09-13T17:24:08.644Z,17.84
2017-09-13T17:27:03.630Z,17.83
2017-09-13T17:29:58.743Z,17.81
2017-09-13T17:32:53.933Z,17.81
2017-09-13T17:35:49.065Z,17.79
2017-09-13T17:38:44.222Z,17.78
2017-09-13T17:41:39.352Z,17.77
2017-09-13T17:44:34.560Z,17.76
2017-09-13T17:47:29.536Z,17.74
2017-09-13T17:50:24.664Z,17.73
2017-09-13T17:53:19.782Z,17.72
2017-09-13T17:56:14.879Z,17.70
2017-09-13T17:59:09.884Z,17.68
2017-09-13T18:02:05.027Z,17.67
2017-09-13T18:05:00.190Z,17.66
2017-09-13T18:07:55.412Z,17.65
2017-09-13T18:10:50.463Z,17.64
2017-09-13T18:13:45.622Z,17.63
2017-09-13T18:16:40.752Z,17.64
2017-09-13T18:19:35.871Z,17.65
2017-09-13T18:22:30.946Z,17.65
2017-09-13T18:25:26.093Z,17.66
2017-09-13T18:28:21.175Z,17.65
2017-09-13T18:31:16.322Z,17.65
2017-09-13T18:34:11.655Z,17.65
2017-09-13T18:37:06.858Z,17.65
2017-09-13T18:40:01.945Z,17.65
2017-09-13T18:42:57.002Z,17.64
2017-09-13T18:45:52.058Z,17.64
2017-09-13T18:48:47.313Z,17.62
2017-09-13T18:51:42.439Z,17.61
2017-09-13T18:54:37.523Z,17.61
2017-09-13T18:57:32.602Z,17.60
2017-09-13T19:00:27.705Z,17.59
2017-09-13T19:03:22.728Z,17.58
2017-09-13T19:06:17.836Z,17.56
2017-09-13T19:09:12.949Z,17.55
2017-09-13T19:12:08.076Z,17.54
2017-09-13T19:15:03.045Z,17.53
2017-09-13T19:17:58.075Z,17.52
2017-09-13T19:20:53.194Z,17.51
2017-09-13T19:23:48.230Z,17.51
2017-09-13T19:26:43.227Z,17.51
2017-09-13T19:29:38.375Z,17.52
2017-09-13T19:32:33.440Z,17.51
2017-09-13T19:35:28.642Z,17.51
2017-09-13T19:38:23.778Z,17.50
2017-09-13T19:41:18.956Z,17.48
2017-09-13T19:44:14.129Z,17.47
2017-09-13T19:47:09.311Z,17.46
2017-09-13T19:50:04.399Z,17.44
2017-09-13T19:55:54.836Z,17.43
2017-09-13T19:58:49.933Z,17.43
2017-09-13T20:01:44.980Z,17.43
2017-09-13T20:04:40.133Z,17.42
2017-09-13T20:07:35.304Z,17.41
2017-09-13T20:10:30.434Z,17.41
2017-09-13T20:13:25.530Z,17.41
2017-09-13T20:16:20.610Z,17.39
2017-09-13T20:19:15.764Z,17.35
2017-09-13T20:22:10.833Z,17.34
2017-09-13T20:25:05.908Z,17.33
2017-09-13T20:28:00.989Z,17.32
2017-09-13T20:30:55.895Z,17.32
2017-09-13T20:33:51.125Z,17.32
2017-09-13T20:36:46.138Z,17.31
2017-09-13T20:39:41.289Z,17.29
2017-09-13T20:42:36.397Z,17.30
2017-09-13T20:45:31.355Z,17.30
2017-09-13T20:48:26.455Z,17.30
2017-09-13T20:51:21.539Z,17.30
2017-09-13T20:54:16.639Z,17.29
2017-09-13T20:57:11.598Z,17.29
2017-09-13T21:00:06.746Z,17.29
2017-09-13T21:03:01.820Z,17.29
2017-09-13T21:05:56.827Z,17.29
2017-09-13T21:08:51.952Z,17.28
2017-09-13T21:11:46.906Z,17.27
2017-09-13T21:14:42.090Z,17.27
2017-09-13T21:17:37.138Z,17.27
2017-09-13T21:20:32.232Z,17.26
2017-09-13T21:23:27.334Z,17.25
2017-09-13T21:26:22.390Z,17.24
2017-09-13T21:29:17.493Z,17.23
2017-09-13T21:32:12.657Z,17.22
2017-09-13T21:35:07.852Z,17.22
2017-09-13T21:38:02.883Z,17.21
2017-09-13T21:40:57.884Z,17.20
2017-09-13T21:49:43.032Z,17.14
2017-09-13T21:52:38.195Z,17.10
2017-09-13T21:55:33.262Z,17.05
2017-09-13T21:58:28.326Z,17.02
2017-09-13T22:01:23.450Z,17.00
2017-09-13T22:04:18.437Z,16.99
2017-09-13T22:07:13.597Z,16.98
2017-09-13T22:10:08.634Z,16.97
2017-09-13T22:13:03.624Z,16.94
2017-09-13T22:18:53.677Z,16.89
2017-09-13T22:21:48.705Z,16.87
2017-09-13T22:24:43.786Z,16.86
2017-09-13T22:27:38.786Z,16.84
2017-09-13T22:30:33.723Z,16.82
2017-09-13T22:33:28.744Z,16.81
2017-09-13T22:36:23.842Z,16.81
2017-09-13T22:39:18.851Z,16.79
2017-09-13T22:42:14.210Z,16.77
2017-09-13T22:45:09.165Z,16.74
2017-09-13T22:48:04.158Z,16.72
2017-09-13T22:50:59.323Z,16.71
2017-09-13T22:53:54.425Z,16.69
2017-09-13T22:56:49.520Z,16.67
2017-09-13T22:59:44.553Z,16.67
2017-09-13T23:02:39.825Z,16.66
2017-09-13T23:05:34.835Z,16.65
2017-09-13T23:08:29.847Z,16.63
2017-09-13T23:11:24.901Z,16.61
2017-09-13T23:14:19.938Z,16.59
2017-09-13T23:17:14.889Z,16.57
2017-09-13T23:20:10.032Z,16.57
2017-09-13T23:23:04.970Z,16.55
2017-09-13T23:25:59.971Z,16.55
2017-09-13T23:28:55.036Z,16.54
2017-09-13T23:31:50.266Z,16.53
2017-09-13T23:34:45.273Z,16.51
2017-09-13T23:37:40.264Z,16.51
2017-09-13T23:40:35.165Z,16.50
2017-09-13T23:43:30.214Z,16.51
2017-09-13T23:46:25.265Z,16.50
2017-09-13T23:49:20.192Z,16.49
2017-09-13T23:52:15.093Z,16.47
2017-09-13T23:55:10.178Z,16.45
2017-09-13T23:58:05.205Z,16.42
